createdAt,value
2022-10-22T00:00:45.994Z,0.00
2022-10-22T00:01:45.980Z,0.00
2022-10-22T00:02:45.978Z,0.00
2022-10-22T00:03:45.944Z,0.00
2022-10-22T00:04:45.950Z,0.00
2022-10-22T00:05:45.919Z,0.00
2022-10-22T00:06:45.899Z,0.00
2022-10-22T00:07:45.888Z,0.00
2022-10-22T00:08:45.927Z,0.00
2022-10-22T00:09:45.853Z,0.00
2022-10-22T00:10:45.840Z,0.00
2022-10-22T00:11:45.834Z,0.00
2022-10-22T00:12:45.808Z,0.00
2022-10-22T00:14:45.777Z,0.00
2022-10-22T00:15:45.770Z,0.00
2022-10-22T00:16:45.756Z,0.00
2022-10-22T00:17:45.735Z,0.00
2022-10-22T00:18:45.716Z,0.00
2022-10-22T00:19:45.715Z,0.00
2022-10-22T00:20:45.685Z,0.00
2022-10-22T00:21:45.681Z,0.00
2022-10-22T00:22:45.685Z,0.00
2022-10-22T00:23:45.641Z,0.00
2022-10-22T00:24:45.621Z,0.00
2022-10-22T00:25:45.622Z,0.00
2022-10-22T00:26:45.593Z,0.00
2022-10-22T00:27:45.582Z,0.00
2022-10-22T00:28:45.568Z,0.00
2022-10-22T00:29:45.551Z,0.00
2022-10-22T00:30:45.532Z,0.00
2022-10-22T00:31:45.581Z,0.00
2022-10-22T00:32:45.504Z,0.00
2022-10-22T00:33:45.490Z,0.00
2022-10-22T00:34:45.473Z,0.00
2022-10-22T00:35:45.477Z,0.00
2022-10-22T00:36:45.448Z,0.00
2022-10-22T00:37:45.433Z,0.00
2022-10-22T00:38:45.411Z,0.00
2022-10-22T00:39:45.398Z,0.00
2022-10-22T00:40:45.382Z,0.00
2022-10-22T00:41:45.373Z,0.00
2022-10-22T00:42:45.355Z,0.00
2022-10-22T00:43:45.336Z,0.00
2022-10-22T00:44:45.319Z,0.00
2022-10-22T00:45:45.306Z,0.00
2022-10-22T00:46:45.287Z,0.00
2022-10-22T00:47:45.273Z,0.00
2022-10-22T00:48:45.265Z,0.00
2022-10-22T00:49:45.246Z,0.00
2022-10-22T00:50:45.227Z,0.00
2022-10-22T00:51:45.220Z,0.00
2022-10-22T00:52:45.196Z,0.00
2022-10-22T00:53:45.187Z,0.00
2022-10-22T00:54:45.198Z,0.00
2022-10-22T00:55:45.152Z,0.00
2022-10-22T00:56:45.144Z,0.00
2022-10-22T00:57:45.121Z,0.00
2022-10-22T00:58:45.106Z,0.00
2022-10-22T00:59:45.089Z,0.00
2022-10-22T01:00:45.155Z,0.00
2022-10-22T01:01:45.060Z,0.00
2022-10-22T01:02:45.044Z,0.00
2022-10-22T01:03:45.030Z,0.00
2022-10-22T01:04:45.012Z,0.00
2022-10-22T01:05:44.997Z,0.00
2022-10-22T01:06:44.984Z,0.00
2022-10-22T01:07:44.968Z,0.00
2022-10-22T01:08:44.970Z,0.00
2022-10-22T01:09:44.943Z,0.00
2022-10-22T01:10:44.919Z,0.00
2022-10-22T01:11:44.912Z,0.00
2022-10-22T01:12:44.888Z,0.00
2022-10-22T01:13:44.873Z,0.00
2022-10-22T01:14:44.861Z,0.00
2022-10-22T01:15:44.843Z,0.00
2022-10-22T01:16:44.827Z,0.00
2022-10-22T01:17:44.814Z,0.00
2022-10-22T01:18:44.796Z,0.00
2022-10-22T01:19:44.782Z,0.00
2022-10-22T01:20:44.777Z,0.00
2022-10-22T01:21:44.750Z,0.00
2022-10-22T01:22:44.747Z,0.00
2022-10-22T01:23:44.720Z,0.00
2022-10-22T01:24:44.705Z,0.00
2022-10-22T01:25:44.692Z,0.00
2022-10-22T01:26:44.673Z,0.00
2022-10-22T01:27:44.662Z,0.00
2022-10-22T01:28:44.642Z,0.00
2022-10-22T01:29:44.629Z,0.00
2022-10-22T01:30:44.622Z,0.00
2022-10-22T01:31:44.603Z,0.00
2022-10-22T01:32:44.604Z,0.00
2022-10-22T01:33:44.568Z,0.00
2022-10-22T01:34:44.550Z,0.00
2022-10-22T01:35:44.538Z,0.00
2022-10-22T01:36:44.517Z,0.00
2022-10-22T01:37:44.508Z,0.00
2022-10-22T01:38:44.487Z,0.00
2022-10-22T01:39:44.485Z,0.00
2022-10-22T01:40:44.454Z,0.00
2022-10-22T01:41:44.444Z,0.00
2022-10-22T01:42:44.432Z,0.00
2022-10-22T01:43:44.412Z,0.00
2022-10-22T01:44:44.397Z,0.00
2022-10-22T01:45:44.380Z,0.00
2022-10-22T01:46:44.369Z,0.00
2022-10-22T01:47:44.356Z,0.00
2022-10-22T01:48:44.334Z,0.00
2022-10-22T01:49:44.318Z,0.00
2022-10-22T01:50:44.305Z,0.00
2022-10-22T01:51:44.287Z,0.00
2022-10-22T01:52:44.274Z,0.00
2022-10-22T01:54:44.238Z,0.00
2022-10-22T01:55:44.225Z,0.00
2022-10-22T01:56:44.209Z,0.00
2022-10-22T01:57:44.205Z,0.00
2022-10-22T01:58:44.179Z,0.00
2022-10-22T01:59:44.162Z,0.00
2022-10-22T02:00:44.163Z,0.00
2022-10-22T02:01:44.131Z,0.00
2022-10-22T02:02:44.159Z,0.00
2022-10-22T02:03:52.777Z,0.00
2022-10-22T02:05:48.552Z,0.00
2022-10-22T02:06:48.520Z,0.00
2022-10-22T02:07:48.505Z,0.00
2022-10-22T02:08:48.541Z,0.00
2022-10-22T02:09:48.472Z,0.00
2022-10-22T02:10:48.457Z,0.00
2022-10-22T02:11:48.441Z,0.00
2022-10-22T02:12:48.429Z,0.00
2022-10-22T02:13:48.414Z,0.00
2022-10-22T02:14:48.396Z,0.00
2022-10-22T02:15:48.377Z,0.00
2022-10-22T02:16:48.366Z,0.00
2022-10-22T02:17:48.346Z,0.00
2022-10-22T02:18:48.334Z,0.00
2022-10-22T02:19:48.315Z,0.00
2022-10-22T02:20:48.308Z,0.00
2022-10-22T02:21:48.286Z,0.00
2022-10-22T02:22:48.274Z,0.00
2022-10-22T02:23:48.260Z,0.00
2022-10-22T02:24:48.241Z,0.00
2022-10-22T02:25:48.221Z,0.00
2022-10-22T02:26:48.208Z,0.00
2022-10-22T02:27:48.195Z,0.00
2022-10-22T02:28:48.180Z,0.00
2022-10-22T02:29:48.160Z,0.00
2022-10-22T02:30:48.146Z,0.00
2022-10-22T02:31:48.130Z,0.00
2022-10-22T02:32:48.114Z,0.00
2022-10-22T02:33:48.097Z,0.00
2022-10-22T02:34:48.088Z,0.00
2022-10-22T02:35:48.066Z,0.00
2022-10-22T02:36:50.330Z,0.00
2022-10-22T02:37:48.039Z,0.00
2022-10-22T02:38:48.018Z,0.00
2022-10-22T02:39:48.002Z,0.00
2022-10-22T02:40:47.988Z,0.00
2022-10-22T02:41:47.971Z,0.00
2022-10-22T02:42:47.957Z,0.00
2022-10-22T02:43:47.946Z,0.00
2022-10-22T02:44:47.928Z,0.00
2022-10-22T02:45:47.910Z,0.00
2022-10-22T02:46:47.893Z,0.00
2022-10-22T02:47:47.884Z,0.00
2022-10-22T02:48:47.867Z,0.00
2022-10-22T02:49:47.850Z,0.00
2022-10-22T02:50:47.828Z,0.00
2022-10-22T02:51:47.813Z,0.00
2022-10-22T02:52:47.813Z,0.00
2022-10-22T02:53:47.783Z,0.00
2022-10-22T02:54:47.767Z,0.00
2022-10-22T02:55:47.753Z,0.00
2022-10-22T02:56:47.739Z,0.00
2022-10-22T02:57:47.723Z,0.00
2022-10-22T02:58:47.703Z,0.00
2022-10-22T02:59:47.690Z,0.00
2022-10-22T03:00:47.696Z,0.00
2022-10-22T03:01:47.657Z,0.00
2022-10-22T03:02:47.641Z,0.00
2022-10-22T03:03:47.629Z,0.00
2022-10-22T03:04:47.611Z,0.00
2022-10-22T03:05:47.603Z,0.00
2022-10-22T03:06:47.583Z,0.00
2022-10-22T03:07:47.563Z,0.00
2022-10-22T03:08:47.570Z,0.00
2022-10-22T03:09:47.536Z,0.00
2022-10-22T03:10:47.515Z,0.00
2022-10-22T03:11:47.501Z,0.00
2022-10-22T03:12:47.484Z,0.00
2022-10-22T03:13:47.471Z,0.00
2022-10-22T03:14:47.451Z,0.00
2022-10-22T03:15:47.440Z,0.00
2022-10-22T03:16:47.424Z,0.00
2022-10-22T03:17:47.406Z,0.00
2022-10-22T03:18:47.389Z,0.00
2022-10-22T03:19:47.382Z,0.00
2022-10-22T03:20:47.359Z,0.00
2022-10-22T03:21:47.343Z,0.00
2022-10-22T03:22:47.329Z,0.00
2022-10-22T03:23:47.312Z,0.00
2022-10-22T03:24:47.300Z,0.00
2022-10-22T03:25:47.321Z,0.00
2022-10-22T03:26:47.267Z,0.00
2022-10-22T03:27:47.250Z,0.00
2022-10-22T03:28:47.238Z,0.00
2022-10-22T03:29:47.224Z,0.00
2022-10-22T03:30:47.201Z,0.00
2022-10-22T03:31:47.197Z,0.00
2022-10-22T03:32:47.170Z,0.00
2022-10-22T03:33:47.155Z,0.00
2022-10-22T03:34:47.181Z,0.00
2022-10-22T03:35:47.123Z,0.00
2022-10-22T03:36:47.106Z,0.00
2022-10-22T03:37:47.091Z,0.00
2022-10-22T03:38:47.075Z,0.00
2022-10-22T03:39:47.062Z,0.00
2022-10-22T03:40:47.044Z,0.00
2022-10-22T03:41:47.029Z,0.00
2022-10-22T03:42:47.020Z,0.00
2022-10-22T03:43:46.997Z,0.00
2022-10-22T03:44:46.981Z,0.00
2022-10-22T03:45:46.986Z,0.00
2022-10-22T03:46:46.957Z,0.00
2022-10-22T03:47:46.940Z,0.00
2022-10-22T03:48:46.919Z,0.00
2022-10-22T03:49:46.900Z,0.00
2022-10-22T03:50:46.886Z,0.00
2022-10-22T03:51:46.870Z,0.00
2022-10-22T03:52:46.855Z,0.00
2022-10-22T03:53:46.842Z,0.00
2022-10-22T03:54:46.826Z,0.00
2022-10-22T03:55:46.810Z,0.00
2022-10-22T03:56:46.792Z,0.00
2022-10-22T03:57:46.780Z,0.00
2022-10-22T03:58:46.760Z,0.00
2022-10-22T03:59:46.748Z,0.00
2022-10-22T04:00:46.778Z,0.00
2022-10-22T04:01:46.722Z,0.00
2022-10-22T04:02:46.698Z,0.00
2022-10-22T04:03:46.686Z,0.00
2022-10-22T04:04:46.678Z,0.00
2022-10-22T04:05:46.652Z,0.00
2022-10-22T04:06:46.639Z,0.00
2022-10-22T04:07:46.622Z,0.00
2022-10-22T04:08:46.670Z,0.00
2022-10-22T04:09:46.593Z,0.00
2022-10-22T04:10:46.579Z,0.00
2022-10-22T04:11:46.564Z,0.00
2022-10-22T04:12:46.546Z,0.00
2022-10-22T04:13:46.537Z,0.00
2022-10-22T04:14:46.521Z,0.00
2022-10-22T04:16:46.479Z,0.00
2022-10-22T04:17:46.465Z,0.00
2022-10-22T04:18:46.447Z,0.00
2022-10-22T04:19:46.431Z,0.00
2022-10-22T04:20:46.423Z,0.00
2022-10-22T04:21:46.403Z,0.00
2022-10-22T04:22:46.385Z,0.00
2022-10-22T04:23:46.372Z,0.00
2022-10-22T04:24:46.397Z,0.00
2022-10-22T04:25:46.340Z,0.00
2022-10-22T04:26:46.327Z,0.00
2022-10-22T04:27:46.309Z,0.00
2022-10-22T04:28:46.291Z,0.00
2022-10-22T04:29:46.277Z,0.00
2022-10-22T04:30:46.259Z,0.00
2022-10-22T04:31:46.253Z,0.00
2022-10-22T04:32:46.230Z,0.00
2022-10-22T04:33:46.213Z,0.00
2022-10-22T04:34:46.198Z,0.00
2022-10-22T04:35:46.185Z,0.00
2022-10-22T04:36:46.167Z,0.00
2022-10-22T04:37:46.152Z,0.00
2022-10-22T04:38:46.140Z,0.00
2022-10-22T04:39:46.121Z,0.00
2022-10-22T04:40:46.106Z,0.00
2022-10-22T04:41:46.101Z,0.00
2022-10-22T04:42:46.073Z,0.00
2022-10-22T04:43:46.059Z,0.00
2022-10-22T04:44:46.042Z,0.00
2022-10-22T04:45:46.082Z,0.00
2022-10-22T04:46:46.013Z,0.00
2022-10-22T04:47:46.009Z,0.00
2022-10-22T04:48:45.981Z,0.00
2022-10-22T04:49:45.966Z,0.00
2022-10-22T04:50:45.947Z,0.00
2022-10-22T04:51:45.938Z,0.00
2022-10-22T04:52:45.918Z,0.00
2022-10-22T04:53:45.902Z,0.00
2022-10-22T04:54:45.888Z,0.00
2022-10-22T04:55:45.873Z,0.00
2022-10-22T04:56:45.855Z,0.00
2022-10-22T04:57:45.840Z,0.00
2022-10-22T04:58:45.823Z,0.00
2022-10-22T04:59:45.810Z,0.00
2022-10-22T05:00:45.871Z,0.00
2022-10-22T05:01:45.778Z,0.00
2022-10-22T05:02:45.760Z,0.00
2022-10-22T05:03:45.751Z,0.00
2022-10-22T05:04:45.733Z,0.00
2022-10-22T05:05:45.716Z,0.00
2022-10-22T05:06:45.696Z,0.00
2022-10-22T05:07:45.684Z,0.00
2022-10-22T05:08:45.741Z,0.00
2022-10-22T05:09:45.654Z,0.00
2022-10-22T05:10:45.638Z,0.00
2022-10-22T05:11:45.620Z,0.00
2022-10-22T05:12:45.603Z,0.00
2022-10-22T05:13:45.589Z,0.00
2022-10-22T05:14:45.572Z,0.00
2022-10-22T05:15:45.560Z,0.00
2022-10-22T05:17:45.526Z,0.00
2022-10-22T05:18:45.513Z,0.00
2022-10-22T05:19:45.496Z,0.00
2022-10-22T05:20:45.478Z,0.00
2022-10-22T05:21:45.465Z,0.00
2022-10-22T05:22:45.465Z,0.00
2022-10-22T05:23:45.434Z,0.00
2022-10-22T05:24:45.418Z,0.00
2022-10-22T05:25:45.404Z,0.00
2022-10-22T05:26:45.383Z,0.00
2022-10-22T05:27:45.372Z,0.00
2022-10-22T05:28:45.366Z,0.00
2022-10-22T05:29:45.338Z,0.00
2022-10-22T05:30:45.321Z,0.00
2022-10-22T05:31:45.308Z,0.00
2022-10-22T05:32:45.290Z,0.00
2022-10-22T05:33:45.278Z,0.00
2022-10-22T05:34:45.261Z,0.00
2022-10-22T05:35:46.840Z,0.00
2022-10-22T05:36:45.227Z,0.00
2022-10-22T05:37:45.243Z,4.00
2022-10-22T05:38:45.196Z,4.00
2022-10-22T05:39:45.180Z,0.00
2022-10-22T05:40:45.165Z,4.00
2022-10-22T05:41:45.154Z,8.00
2022-10-22T05:42:45.132Z,4.00
2022-10-22T05:43:45.122Z,8.00
2022-10-22T05:44:45.104Z,8.00
2022-10-22T05:45:45.098Z,4.00
2022-10-22T05:46:45.071Z,8.00
2022-10-22T05:47:45.057Z,8.00
2022-10-22T05:48:45.039Z,8.00
2022-10-22T05:49:45.024Z,12.00
2022-10-22T05:50:45.011Z,16.00
2022-10-22T05:51:44.996Z,16.00
2022-10-22T05:52:44.978Z,20.00
2022-10-22T05:53:44.961Z,20.00
2022-10-22T05:54:44.943Z,20.00
2022-10-22T05:55:44.932Z,20.00
2022-10-22T05:56:44.915Z,20.00
2022-10-22T05:57:44.896Z,20.00
2022-10-22T05:58:44.885Z,20.00
2022-10-22T05:59:44.865Z,24.00
2022-10-22T06:00:44.851Z,24.00
2022-10-22T06:01:44.985Z,32.00
2022-10-22T06:02:44.816Z,32.00
2022-10-22T06:03:44.804Z,36.00
2022-10-22T06:04:44.789Z,36.00
2022-10-22T06:05:44.768Z,36.00
2022-10-22T06:06:44.754Z,40.00
2022-10-22T06:07:44.740Z,40.00
2022-10-22T06:08:44.796Z,40.00
2022-10-22T06:09:44.716Z,44.00
2022-10-22T06:10:44.706Z,48.00
2022-10-22T06:11:44.678Z,56.00
2022-10-22T06:12:44.665Z,68.00
2022-10-22T06:13:44.644Z,80.00
2022-10-22T06:14:44.628Z,92.00
2022-10-22T06:15:44.618Z,100.00
2022-10-22T06:16:44.596Z,108.00
2022-10-22T06:17:44.581Z,116.00
2022-10-22T06:18:44.569Z,132.00
2022-10-22T06:19:44.551Z,144.00
2022-10-22T06:20:44.536Z,156.00
2022-10-22T06:21:44.521Z,164.00
2022-10-22T06:22:44.502Z,176.00
2022-10-22T06:23:44.491Z,196.00
2022-10-22T06:24:45.233Z,220.00
2022-10-22T06:25:44.456Z,252.00
2022-10-22T06:26:44.444Z,272.00
2022-10-22T06:27:44.427Z,284.00
2022-10-22T06:28:44.413Z,300.00
2022-10-22T06:29:44.392Z,308.00
2022-10-22T06:30:46.551Z,312.00
2022-10-22T06:31:44.363Z,320.00
2022-10-22T06:32:44.346Z,320.00
2022-10-22T06:33:44.330Z,324.00
2022-10-22T06:34:44.314Z,324.00
2022-10-22T06:35:44.305Z,336.00
2022-10-22T06:36:44.303Z,364.00
2022-10-22T06:37:44.269Z,384.00
2022-10-22T06:38:44.252Z,404.00
2022-10-22T06:39:44.238Z,408.00
2022-10-22T06:40:44.221Z,396.00
2022-10-22T06:41:44.205Z,380.00
2022-10-22T06:42:44.191Z,352.00
2022-10-22T06:43:44.175Z,356.00
2022-10-22T06:44:44.163Z,376.00
2022-10-22T06:45:44.146Z,360.00
2022-10-22T06:46:44.125Z,332.00
2022-10-22T06:47:44.312Z,344.00
2022-10-22T06:48:44.095Z,376.00
2022-10-22T06:49:44.083Z,376.00
2022-10-22T06:50:44.064Z,360.00
2022-10-22T06:51:44.055Z,372.00
2022-10-22T06:52:44.034Z,396.00
2022-10-22T06:53:44.021Z,416.00
2022-10-22T06:54:44.005Z,472.00
2022-10-22T06:55:43.988Z,504.00
2022-10-22T06:56:43.974Z,516.00
2022-10-22T06:57:44.322Z,496.00
2022-10-22T06:58:43.942Z,536.00
2022-10-22T06:59:43.925Z,564.00
2022-10-22T07:00:43.923Z,560.00
2022-10-22T07:01:43.993Z,536.00
2022-10-22T07:02:44.171Z,564.00
2022-10-22T07:03:43.862Z,568.00
2022-10-22T07:04:43.853Z,588.00
2022-10-22T07:05:43.834Z,576.00
2022-10-22T07:06:43.821Z,628.00
2022-10-22T07:07:43.798Z,604.00
2022-10-22T07:08:43.794Z,588.00
2022-10-22T07:09:43.777Z,588.00
2022-10-22T07:10:43.755Z,644.00
2022-10-22T07:11:43.739Z,676.00
2022-10-22T07:12:44.098Z,820.00
2022-10-22T07:13:43.711Z,804.00
2022-10-22T07:14:43.694Z,768.00
2022-10-22T07:15:43.677Z,792.00
2022-10-22T07:16:43.668Z,736.00
2022-10-22T07:17:43.653Z,964.00
2022-10-22T07:18:43.633Z,1120.00
2022-10-22T07:19:44.597Z,1096.00
2022-10-22T07:20:43.622Z,1048.00
2022-10-22T07:21:43.586Z,1216.00
2022-10-22T07:22:43.782Z,1284.00
2022-10-22T07:23:43.554Z,1256.00
2022-10-22T07:24:43.540Z,1204.00
2022-10-22T07:25:43.614Z,1232.00
2022-10-22T07:26:43.509Z,1348.00
2022-10-22T07:27:43.675Z,1332.00
2022-10-22T07:28:43.479Z,1296.00
2022-10-22T07:29:43.460Z,1152.00
2022-10-22T07:30:43.447Z,1048.00
2022-10-22T07:31:43.434Z,1068.00
2022-10-22T07:32:43.419Z,1016.00
2022-10-22T07:33:43.400Z,1012.00
2022-10-22T07:34:43.988Z,948.00
2022-10-22T07:35:43.370Z,1004.00
2022-10-22T07:36:43.360Z,1028.00
2022-10-22T07:37:43.555Z,972.00
2022-10-22T07:38:43.325Z,1196.00
2022-10-22T07:39:43.308Z,1224.00
2022-10-22T07:40:43.297Z,1240.00
2022-10-22T07:41:43.278Z,1220.00
2022-10-22T07:42:43.264Z,1156.00
2022-10-22T07:43:43.252Z,1168.00
2022-10-22T07:44:43.236Z,1268.00
2022-10-22T07:45:43.216Z,1388.00
2022-10-22T07:46:46.635Z,1608.00
2022-10-22T07:47:43.471Z,1812.00
2022-10-22T07:48:43.176Z,1820.00
2022-10-22T07:49:43.157Z,2232.00
2022-10-22T07:51:43.126Z,2268.00
2022-10-22T07:52:43.575Z,2296.00
2022-10-22T07:53:43.095Z,2016.00
2022-10-22T07:54:43.082Z,1868.00
2022-10-22T07:55:43.067Z,2384.00
2022-10-22T07:56:43.054Z,2684.00
2022-10-22T07:57:43.036Z,2832.00
2022-10-22T07:58:43.023Z,2876.00
2022-10-22T07:59:43.006Z,2940.00
2022-10-22T08:00:42.993Z,2956.00
2022-10-22T08:01:43.038Z,3032.00
2022-10-22T08:02:43.295Z,3116.00
2022-10-22T08:03:42.948Z,3144.00
2022-10-22T08:04:42.939Z,3180.00
2022-10-22T08:05:42.920Z,3236.00
2022-10-22T08:06:45.826Z,3280.00
2022-10-22T08:07:42.891Z,3332.00
2022-10-22T08:08:42.910Z,3384.00
2022-10-22T08:09:42.860Z,3440.00
2022-10-22T08:10:42.855Z,3480.00
2022-10-22T08:11:42.835Z,3520.00
2022-10-22T08:12:43.185Z,3564.00
2022-10-22T08:13:45.342Z,3616.00
2022-10-22T08:14:42.813Z,3660.00
2022-10-22T08:15:42.777Z,3708.00
2022-10-22T08:16:42.764Z,3760.00
2022-10-22T08:17:43.159Z,3800.00
2022-10-22T08:18:42.756Z,3856.00
2022-10-22T08:19:42.717Z,3904.00
2022-10-22T08:20:42.708Z,3960.00
2022-10-22T08:21:42.690Z,4004.00
2022-10-22T08:22:42.680Z,4056.00
2022-10-22T08:23:42.665Z,4104.00
2022-10-22T08:24:42.654Z,4156.00
2022-10-22T08:25:42.658Z,4220.00
2022-10-22T08:26:42.628Z,4272.00
2022-10-22T08:27:43.109Z,4332.00
2022-10-22T08:28:42.598Z,4344.00
2022-10-22T08:29:42.582Z,4404.00
2022-10-22T08:30:42.572Z,4468.00
2022-10-22T08:31:42.556Z,4432.00
2022-10-22T08:32:42.545Z,4496.00
2022-10-22T08:33:42.529Z,4564.00
2022-10-22T08:34:42.518Z,4632.00
2022-10-22T08:35:42.501Z,4688.00
2022-10-22T08:36:42.502Z,4884.00
2022-10-22T08:37:42.921Z,4928.00
2022-10-22T08:38:42.467Z,4964.00
2022-10-22T08:39:42.490Z,4988.00
2022-10-22T08:40:42.487Z,5028.00
2022-10-22T08:41:42.426Z,5056.00
2022-10-22T08:42:42.811Z,5096.00
2022-10-22T08:43:42.402Z,5144.00
2022-10-22T08:44:42.391Z,5184.00
2022-10-22T08:45:42.375Z,5216.00
2022-10-22T08:46:42.365Z,5260.00
2022-10-22T08:47:42.352Z,5300.00
2022-10-22T08:48:42.344Z,5328.00
2022-10-22T08:49:42.429Z,5352.00
2022-10-22T08:50:42.318Z,5384.00
2022-10-22T08:51:42.304Z,5420.00
2022-10-22T08:52:42.659Z,5432.00
2022-10-22T08:53:42.285Z,5460.00
2022-10-22T08:54:42.267Z,5484.00
2022-10-22T08:55:42.258Z,5512.00
2022-10-22T08:56:42.246Z,5540.00
2022-10-22T08:57:42.239Z,5568.00
2022-10-22T08:58:42.222Z,5596.00
2022-10-22T08:59:42.208Z,5620.00
2022-10-22T09:00:42.200Z,5660.00
2022-10-22T09:01:42.205Z,5692.00
2022-10-22T09:02:42.457Z,5736.00
2022-10-22T09:03:42.161Z,5768.00
2022-10-22T09:04:42.155Z,5792.00
2022-10-22T09:05:42.190Z,5836.00
2022-10-22T09:06:42.130Z,5864.00
2022-10-22T09:07:49.814Z,5908.00
2022-10-22T09:09:46.212Z,5988.00
2022-10-22T09:10:46.101Z,6028.00
2022-10-22T09:12:51.544Z,6100.00
2022-10-22T09:13:51.531Z,6124.00
2022-10-22T09:15:55.957Z,6196.00
2022-10-22T09:16:55.936Z,6220.00
2022-10-22T09:18:49.385Z,6272.00
2022-10-22T09:19:49.372Z,6304.00
2022-10-22T09:21:55.019Z,6364.00
2022-10-22T09:22:55.086Z,6400.00
2022-10-22T09:24:59.690Z,6448.00
2022-10-22T09:25:59.591Z,6496.00
2022-10-22T09:28:05.188Z,6544.00
2022-10-22T09:29:04.833Z,6580.00
2022-10-22T09:31:10.395Z,6632.00
2022-10-22T09:32:10.243Z,6652.00
2022-10-22T09:34:15.039Z,6728.00
2022-10-22T09:35:15.518Z,6764.00
2022-10-22T09:37:19.166Z,6892.00
2022-10-22T09:38:19.152Z,6940.00
2022-10-22T09:39:19.119Z,6960.00
2022-10-22T09:40:19.534Z,6960.00
2022-10-22T09:41:19.064Z,6960.00
2022-10-22T09:42:19.045Z,7012.00
2022-10-22T09:43:19.035Z,7040.00
2022-10-22T09:44:19.041Z,7084.00
2022-10-22T09:45:19.014Z,7088.00
2022-10-22T09:46:19.013Z,7108.00
2022-10-22T09:47:18.993Z,7168.00
2022-10-22T09:48:18.989Z,7252.00
2022-10-22T09:49:18.974Z,7332.00
2022-10-22T09:50:18.965Z,7460.00
2022-10-22T09:51:18.965Z,7624.00
2022-10-22T09:52:18.951Z,7800.00
2022-10-22T09:53:18.938Z,7980.00
2022-10-22T09:54:18.927Z,8160.00
2022-10-22T09:55:18.912Z,8472.00
2022-10-22T09:56:18.925Z,6276.00
2022-10-22T09:57:18.904Z,8380.00
2022-10-22T09:58:18.903Z,9936.00
2022-10-22T09:59:18.883Z,10200.00
2022-10-22T10:00:18.866Z,9992.00
2022-10-22T10:01:18.857Z,9620.00
2022-10-22T10:02:33.885Z,9996.00
2022-10-22T10:03:18.901Z,9612.00
2022-10-22T10:04:18.853Z,8304.00
2022-10-22T10:05:18.824Z,8552.00
2022-10-22T10:06:18.821Z,6848.00
2022-10-22T10:07:18.800Z,4080.00
2022-10-22T10:08:18.801Z,3764.00
2022-10-22T10:09:18.803Z,3928.00
2022-10-22T10:10:18.777Z,6196.00
2022-10-22T10:11:18.763Z,7792.00
2022-10-22T10:12:18.777Z,9824.00
2022-10-22T10:13:18.747Z,9344.00
2022-10-22T10:14:18.738Z,8960.00
2022-10-22T10:15:18.726Z,8800.00
2022-10-22T10:16:18.718Z,8768.00
2022-10-22T10:17:18.710Z,8788.00
2022-10-22T10:18:18.699Z,8872.00
2022-10-22T10:19:18.686Z,9016.00
2022-10-22T10:20:18.681Z,9104.00
2022-10-22T10:21:18.671Z,8956.00
2022-10-22T10:22:18.662Z,8856.00
2022-10-22T10:23:20.635Z,8852.00
2022-10-22T10:24:18.678Z,9024.00
2022-10-22T10:25:18.647Z,8916.00
2022-10-22T10:26:18.629Z,8868.00
2022-10-22T10:27:18.618Z,8840.00
2022-10-22T10:28:18.605Z,8772.00
2022-10-22T10:29:18.594Z,8824.00
2022-10-22T10:30:18.585Z,8996.00
2022-10-22T10:31:18.580Z,9108.00
2022-10-22T10:32:21.147Z,9208.00
2022-10-22T10:33:18.558Z,9352.00
2022-10-22T10:34:18.550Z,9496.00
2022-10-22T10:35:18.542Z,9492.00
2022-10-22T10:36:18.533Z,9404.00
2022-10-22T10:37:18.522Z,9248.00
2022-10-22T10:38:18.516Z,9080.00
2022-10-22T10:39:18.516Z,9088.00
2022-10-22T10:40:18.496Z,9216.00
2022-10-22T10:41:18.487Z,9448.00
2022-10-22T10:42:18.482Z,9724.00
2022-10-22T10:43:18.468Z,10016.00
2022-10-22T10:44:18.462Z,9852.00
2022-10-22T10:45:18.456Z,9432.00
2022-10-22T10:46:18.452Z,10232.00
2022-10-22T10:47:18.434Z,9560.00
2022-10-22T10:48:18.429Z,10320.00
2022-10-22T10:49:18.418Z,9748.00
2022-10-22T10:50:18.411Z,9716.00
2022-10-22T10:51:18.402Z,9568.00
2022-10-22T10:52:20.480Z,9496.00
2022-10-22T10:53:18.383Z,8792.00
2022-10-22T10:54:18.379Z,9468.00
2022-10-22T10:55:18.367Z,9420.00
2022-10-22T10:56:18.362Z,9448.00
2022-10-22T10:57:18.369Z,9512.00
2022-10-22T10:58:18.378Z,9592.00
2022-10-22T10:59:18.346Z,9660.00
2022-10-22T11:00:18.333Z,9816.00
2022-10-22T11:01:18.342Z,10468.00
2022-10-22T11:02:18.325Z,7160.00
2022-10-22T11:03:18.303Z,9200.00
2022-10-22T11:04:18.297Z,5756.00
2022-10-22T11:05:18.289Z,7548.00
2022-10-22T11:06:19.476Z,9448.00
2022-10-22T11:07:30.239Z,10476.00
2022-10-22T11:08:18.266Z,12032.00
2022-10-22T11:09:18.319Z,8332.00
2022-10-22T11:10:18.254Z,12648.00
2022-10-22T11:11:18.244Z,4192.00
2022-10-22T11:12:18.234Z,3160.00
2022-10-22T11:13:18.226Z,3208.00
2022-10-22T11:14:18.224Z,3572.00
2022-10-22T11:15:18.219Z,4032.00
2022-10-22T11:16:18.204Z,4004.00
2022-10-22T11:17:18.191Z,4012.00
2022-10-22T11:18:18.190Z,3972.00
2022-10-22T11:19:22.950Z,3820.00
2022-10-22T11:20:18.171Z,3600.00
2022-10-22T11:21:18.163Z,3272.00
2022-10-22T11:22:18.153Z,2924.00
2022-10-22T11:23:20.319Z,2676.00
2022-10-22T11:24:18.132Z,2556.00
2022-10-22T11:25:18.120Z,2532.00
2022-10-22T11:26:18.113Z,2528.00
2022-10-22T11:27:18.102Z,2464.00
2022-10-22T11:28:18.096Z,2384.00
2022-10-22T11:29:18.089Z,2308.00
2022-10-22T11:30:18.080Z,2292.00
2022-10-22T11:31:18.250Z,2372.00
2022-10-22T11:32:18.055Z,2472.00
2022-10-22T11:33:18.042Z,2580.00
2022-10-22T11:34:34.040Z,2680.00
2022-10-22T11:35:21.146Z,2716.00
2022-10-22T11:36:18.070Z,2752.00
2022-10-22T11:37:17.998Z,2792.00
2022-10-22T11:38:17.989Z,2796.00
2022-10-22T11:39:17.976Z,2820.00
2022-10-22T11:40:17.965Z,2876.00
2022-10-22T11:41:17.960Z,2972.00
2022-10-22T11:42:17.944Z,3048.00
2022-10-22T11:43:17.964Z,3112.00
2022-10-22T11:44:17.919Z,3316.00
2022-10-22T11:45:17.909Z,3684.00
2022-10-22T11:46:17.910Z,3984.00
2022-10-22T11:47:18.092Z,3804.00
2022-10-22T11:48:17.890Z,3388.00
2022-10-22T11:49:17.868Z,3312.00
2022-10-22T11:50:17.856Z,3360.00
2022-10-22T11:51:17.847Z,3296.00
2022-10-22T11:52:17.832Z,4104.00
2022-10-22T11:53:17.868Z,7644.00
2022-10-22T11:54:17.812Z,4652.00
2022-10-22T11:55:17.793Z,7064.00
2022-10-22T11:56:17.779Z,12512.00
2022-10-22T11:57:17.769Z,4936.00
2022-10-22T11:58:17.756Z,7100.00
2022-10-22T11:59:17.748Z,11936.00
2022-10-22T12:00:17.730Z,6068.00
2022-10-22T12:01:17.723Z,8224.00
2022-10-22T12:02:17.717Z,15376.00
2022-10-22T12:03:17.707Z,16320.00
2022-10-22T12:04:17.907Z,16832.00
2022-10-22T12:05:17.692Z,8844.00
2022-10-22T12:06:17.663Z,17280.00
2022-10-22T12:07:17.656Z,7708.00
2022-10-22T12:08:17.721Z,8360.00
2022-10-22T12:09:17.695Z,12236.00
2022-10-22T12:10:18.508Z,5872.00
2022-10-22T12:11:17.616Z,5204.00
2022-10-22T12:12:17.601Z,3916.00
2022-10-22T12:13:17.590Z,4028.00
2022-10-22T12:14:17.580Z,4132.00
2022-10-22T12:15:17.568Z,4008.00
2022-10-22T12:16:23.579Z,3408.00
2022-10-22T12:17:17.628Z,3000.00
2022-10-22T12:18:17.560Z,2940.00
2022-10-22T12:19:17.533Z,3096.00
2022-10-22T12:20:17.520Z,3412.00
2022-10-22T12:21:17.510Z,3956.00
2022-10-22T12:22:17.499Z,4004.00
2022-10-22T12:23:17.487Z,4380.00
2022-10-22T12:24:17.480Z,6012.00
2022-10-22T12:25:17.469Z,7552.00
2022-10-22T12:26:17.458Z,4904.00
2022-10-22T12:27:19.106Z,5192.00
2022-10-22T12:28:17.434Z,5696.00
2022-10-22T12:29:17.426Z,5368.00
2022-10-22T12:30:17.417Z,6376.00
2022-10-22T12:31:17.418Z,7220.00
2022-10-22T12:32:17.405Z,10196.00
2022-10-22T12:33:17.387Z,11796.00
2022-10-22T12:34:17.374Z,7528.00
2022-10-22T12:35:17.366Z,4720.00
2022-10-22T12:36:17.371Z,16832.00
2022-10-22T12:37:17.339Z,16096.00
2022-10-22T12:38:17.331Z,14016.00
2022-10-22T12:39:17.328Z,15068.00
2022-10-22T12:40:17.310Z,7844.00
2022-10-22T12:41:17.302Z,1924.00
2022-10-22T12:42:17.294Z,1872.00
2022-10-22T12:43:17.291Z,2112.00
2022-10-22T12:44:17.274Z,1684.00
2022-10-22T12:45:17.259Z,1560.00
2022-10-22T12:46:17.248Z,1832.00
2022-10-22T12:47:17.243Z,2368.00
2022-10-22T12:48:17.231Z,16544.00
2022-10-22T12:49:17.218Z,16448.00
2022-10-22T12:50:17.207Z,8296.00
2022-10-22T12:51:17.196Z,3520.00
2022-10-22T12:52:17.187Z,2560.00
2022-10-22T12:53:17.178Z,15156.00
2022-10-22T12:54:17.166Z,16256.00
2022-10-22T12:55:17.157Z,16096.00
2022-10-22T12:56:17.143Z,16192.00